X  Close Metar Aviation Weather Data     EBBR Brussels

Temperature

12°C Temperature

11°C Dewpoint

94% Humidity



Wind

13 KM/H

 8 MPH

 4 M/S

 7 KTS



180°
Due South
Current Conditions

Clear Clear
Pressure 1008.92 (hPa) - 29.79 (inHg)
Visibility 6.2 (mile) - 10 (km)
Airport
Airport-code EBBR

Location Brussels 14 (km)

Metar:
EBBR 171950Z 18007KT CAVOK 12/11 Q1009 NOSIG

Time: 2019-10-17 21:50 CEST